createdAt,value
2018-11-29T00:01:39.449Z,91.17
2018-11-29T00:04:07.163Z,86.57
2018-11-29T00:06:34.847Z,91.43
2018-11-29T00:09:02.555Z,84.50
2018-11-29T00:11:30.304Z,80.60
2018-11-29T00:13:58.012Z,92.17
2018-11-29T00:16:25.700Z,89.77
2018-11-29T00:18:53.382Z,89.10
2018-11-29T00:21:21.055Z,89.03
2018-11-29T00:23:48.770Z,88.87
2018-11-29T00:26:16.464Z,85.60
2018-11-29T00:28:44.130Z,88.17
2018-11-29T00:31:11.870Z,92.10
2018-11-29T00:33:39.577Z,97.07
2018-11-29T00:36:07.277Z,98.67
2018-11-29T00:38:34.961Z,87.83
2018-11-29T00:41:02.677Z,87.40
2018-11-29T00:43:30.360Z,93.90
2018-11-29T00:45:58.064Z,83.80
2018-11-29T00:48:25.771Z,82.73
2018-11-29T00:50:53.427Z,93.30
2018-11-29T00:53:21.129Z,89.03
2018-11-29T00:55:48.791Z,90.40
2018-11-29T00:58:16.513Z,82.03
2018-11-29T01:00:44.209Z,85.87
2018-11-29T01:03:11.908Z,83.37
2018-11-29T01:05:39.570Z,90.57
2018-11-29T01:08:07.234Z,90.83
2018-11-29T01:10:34.943Z,94.33
2018-11-29T01:13:02.691Z,82.13
2018-11-29T01:15:31.529Z,85.77
2018-11-29T01:17:59.231Z,88.57
2018-11-29T01:20:26.935Z,92.03
2018-11-29T01:22:54.595Z,88.27
2018-11-29T01:25:22.318Z,87.67
2018-11-29T01:27:50.102Z,85.33
2018-11-29T01:30:18.268Z,82.27
2018-11-29T01:32:46.019Z,97.50
2018-11-29T01:35:14.287Z,84.50
2018-11-29T01:37:41.977Z,89.80
2018-11-29T01:40:16.155Z,88.23
2018-11-29T01:42:44.334Z,88.93
2018-11-29T01:45:12.064Z,93.00
2018-11-29T01:47:39.755Z,79.60
2018-11-29T01:50:07.436Z,81.93
2018-11-29T01:52:35.120Z,82.47
2018-11-29T01:55:02.830Z,85.40
2018-11-29T01:57:30.507Z,85.23
2018-11-29T01:59:58.184Z,79.57
2018-11-29T02:02:25.904Z,81.07
2018-11-29T02:04:53.624Z,78.80
2018-11-29T02:07:21.344Z,83.70
2018-11-29T02:09:48.999Z,78.70
2018-11-29T02:12:16.692Z,85.30
2018-11-29T02:14:44.354Z,83.20
2018-11-29T02:17:12.052Z,81.67
2018-11-29T02:19:39.740Z,82.83
2018-11-29T02:22:07.419Z,80.30
2018-11-29T02:24:35.137Z,82.17
2018-11-29T02:27:02.802Z,75.93
2018-11-29T02:29:30.475Z,74.73
2018-11-29T02:31:58.168Z,71.60
2018-11-29T02:34:25.849Z,78.77
2018-11-29T02:36:53.557Z,80.63
2018-11-29T02:39:21.240Z,72.17
2018-11-29T02:41:48.922Z,73.67
2018-11-29T02:44:16.629Z,76.20
2018-11-29T02:46:44.362Z,71.43
2018-11-29T02:49:12.039Z,77.00
2018-11-29T02:51:39.743Z,77.63
2018-11-29T02:54:07.424Z,71.77
2018-11-29T02:56:35.096Z,70.77
2018-11-29T02:59:02.807Z,70.33
2018-11-29T03:01:30.516Z,65.77
2018-11-29T03:03:58.208Z,73.90
2018-11-29T03:06:25.862Z,70.93
2018-11-29T03:08:53.551Z,64.93
2018-11-29T03:11:21.248Z,71.97
2018-11-29T03:13:48.951Z,74.37
2018-11-29T03:16:16.651Z,69.67
2018-11-29T03:18:44.327Z,66.70
2018-11-29T03:21:11.988Z,75.30
2018-11-29T03:23:39.704Z,72.17
2018-11-29T03:26:07.404Z,72.77
2018-11-29T03:28:35.125Z,68.93
2018-11-29T03:31:02.841Z,68.63
2018-11-29T03:33:30.553Z,66.57
2018-11-29T03:35:58.256Z,68.23
2018-11-29T03:38:25.951Z,69.53
2018-11-29T03:40:53.652Z,68.03
2018-11-29T03:43:21.348Z,66.27
2018-11-29T03:45:49.027Z,65.57
2018-11-29T03:48:16.706Z,71.27
2018-11-29T03:50:44.380Z,62.57
2018-11-29T03:53:12.054Z,67.13
2018-11-29T03:55:39.754Z,72.63
2018-11-29T03:58:07.463Z,64.50
2018-11-29T04:00:35.184Z,61.53
2018-11-29T04:03:02.851Z,64.07
2018-11-29T04:05:30.607Z,68.80
2018-11-29T04:07:58.286Z,66.80
2018-11-29T04:10:25.991Z,61.00
2018-11-29T04:12:53.684Z,69.20
2018-11-29T04:15:21.352Z,61.20
2018-11-29T04:17:49.116Z,63.17
2018-11-29T04:20:16.969Z,66.33
2018-11-29T04:22:44.684Z,72.50
2018-11-29T04:25:12.817Z,61.97
2018-11-29T04:27:40.472Z,68.57
2018-11-29T04:30:15.290Z,64.67
2018-11-29T04:32:43.032Z,63.40
2018-11-29T04:35:10.899Z,58.10
2018-11-29T04:37:38.632Z,57.93
2018-11-29T04:40:08.187Z,57.57
2018-11-29T04:42:35.863Z,64.93
2018-11-29T04:45:04.116Z,57.30
2018-11-29T04:47:31.767Z,61.53
2018-11-29T04:49:59.454Z,56.67
2018-11-29T04:52:27.156Z,62.23
2018-11-29T04:54:54.881Z,59.87
2018-11-29T04:57:22.572Z,59.90
2018-11-29T04:59:50.247Z,52.77
2018-11-29T05:02:17.944Z,60.77
2018-11-29T05:04:45.625Z,69.10
2018-11-29T05:07:13.377Z,53.83
2018-11-29T05:09:41.100Z,54.60
2018-11-29T05:12:08.847Z,64.53
2018-11-29T05:14:36.538Z,57.03
2018-11-29T05:17:04.224Z,68.50
2018-11-29T05:19:31.964Z,51.43
2018-11-29T05:21:59.631Z,56.97
2018-11-29T05:24:27.425Z,60.27
2018-11-29T05:26:55.206Z,56.47
2018-11-29T05:29:22.940Z,57.50
2018-11-29T05:31:50.696Z,62.10
2018-11-29T05:34:18.439Z,58.30
2018-11-29T05:36:46.103Z,68.83
2018-11-29T05:39:13.867Z,62.70
2018-11-29T05:41:41.529Z,56.47
2018-11-29T05:44:09.211Z,63.23
2018-11-29T05:46:36.980Z,54.70
2018-11-29T05:49:04.707Z,51.70
2018-11-29T05:51:32.395Z,52.17
2018-11-29T05:54:00.068Z,53.83
2018-11-29T05:56:27.772Z,65.83
2018-11-29T05:58:55.434Z,60.33
2018-11-29T06:01:28.112Z,58.43
2018-11-29T06:03:55.763Z,57.33
2018-11-29T06:06:23.432Z,54.23
2018-11-29T06:08:51.160Z,63.90
2018-11-29T06:11:18.875Z,55.77
2018-11-29T06:13:46.564Z,60.20
2018-11-29T06:16:14.212Z,52.30
2018-11-29T06:18:41.906Z,48.00
2018-11-29T06:21:09.559Z,55.77
2018-11-29T06:23:37.239Z,58.33
2018-11-29T06:26:05.345Z,55.00
2018-11-29T06:28:32.999Z,50.00
2018-11-29T06:31:00.651Z,52.60
2018-11-29T06:33:28.336Z,50.20
2018-11-29T06:35:56.012Z,49.87
2018-11-29T06:38:23.721Z,54.30
2018-11-29T06:40:51.476Z,52.80
2018-11-29T06:43:19.186Z,51.07
2018-11-29T06:45:46.882Z,49.47
2018-11-29T06:48:14.604Z,52.73
2018-11-29T06:50:42.343Z,43.00
2018-11-29T06:53:15.495Z,50.87
2018-11-29T06:55:43.292Z,53.97
2018-11-29T06:58:11.015Z,47.33
2018-11-29T07:00:38.733Z,53.90
2018-11-29T07:03:06.390Z,49.30
2018-11-29T07:05:35.031Z,51.20
2018-11-29T07:08:02.700Z,48.20
2018-11-29T07:10:34.102Z,49.40
2018-11-29T07:13:02.148Z,50.63
2018-11-29T07:15:29.880Z,50.07
2018-11-29T07:17:57.559Z,49.30
2018-11-29T07:20:25.249Z,54.33
2018-11-29T07:22:52.903Z,50.97
2018-11-29T07:25:20.592Z,52.60
2018-11-29T07:27:48.282Z,48.77
2018-11-29T07:30:16.295Z,53.70
2018-11-29T07:32:43.983Z,49.70
2018-11-29T07:35:12.180Z,50.77
2018-11-29T07:37:40.007Z,48.30
2018-11-29T07:40:10.143Z,50.40
2018-11-29T07:42:36.901Z,53.40
2018-11-29T07:45:06.507Z,50.37
2018-11-29T07:47:35.220Z,44.90
2018-11-29T07:50:02.955Z,48.83
2018-11-29T07:52:30.741Z,47.77
2018-11-29T07:54:58.423Z,56.33
2018-11-29T07:57:26.129Z,50.40
2018-11-29T07:59:53.868Z,56.60
2018-11-29T08:02:21.624Z,43.23
2018-11-29T08:04:49.279Z,50.27
2018-11-29T08:07:17.056Z,44.90
2018-11-29T08:09:44.784Z,45.67
2018-11-29T08:12:12.509Z,46.00
2018-11-29T08:14:40.226Z,57.03
2018-11-29T08:17:07.915Z,43.43
2018-11-29T08:19:35.645Z,47.37
2018-11-29T08:22:03.348Z,43.63
2018-11-29T08:24:31.112Z,47.43
2018-11-29T08:26:58.843Z,50.30
2018-11-29T08:29:26.562Z,44.10
2018-11-29T08:31:54.292Z,41.47
2018-11-29T08:34:22.043Z,44.50
2018-11-29T08:36:49.732Z,51.80
2018-11-29T08:39:17.490Z,47.47
2018-11-29T08:41:45.212Z,48.67
2018-11-29T08:44:12.920Z,50.57
2018-11-29T08:46:41.600Z,43.80
2018-11-29T08:49:09.361Z,46.97
2018-11-29T08:51:37.116Z,50.83
2018-11-29T08:54:04.953Z,48.40
2018-11-29T08:56:32.661Z,44.97
2018-11-29T08:59:00.417Z,49.77
2018-11-29T09:01:28.176Z,44.70
2018-11-29T09:03:55.872Z,45.10
2018-11-29T09:06:23.609Z,47.10
2018-11-29T09:08:51.347Z,44.10
2018-11-29T09:11:19.027Z,47.37
2018-11-29T09:13:46.808Z,44.00
2018-11-29T09:16:14.524Z,51.37
2018-11-29T09:18:42.252Z,47.37
2018-11-29T09:21:09.992Z,45.50
2018-11-29T09:23:37.805Z,44.67
2018-11-29T09:26:06.249Z,44.37
2018-11-29T09:28:33.971Z,41.30
2018-11-29T09:31:01.643Z,39.63
2018-11-29T09:33:29.473Z,43.40
2018-11-29T09:35:57.232Z,44.33
2018-11-29T09:38:24.964Z,57.53
2018-11-29T09:40:52.708Z,55.10
2018-11-29T09:43:20.459Z,48.17
2018-11-29T09:45:48.132Z,51.53
2018-11-29T09:48:15.819Z,48.20
2018-11-29T09:50:43.543Z,51.63
2018-11-29T09:53:11.244Z,46.70
2018-11-29T09:55:39.020Z,44.10
2018-11-29T09:58:06.727Z,45.30
2018-11-29T10:00:34.445Z,48.17
2018-11-29T10:03:07.656Z,49.97
2018-11-29T10:05:35.391Z,44.20
2018-11-29T10:08:03.146Z,44.37
2018-11-29T10:10:30.930Z,52.90
2018-11-29T10:12:58.640Z,50.70
2018-11-29T10:15:26.383Z,46.50
2018-11-29T10:17:54.091Z,45.20
2018-11-29T10:20:21.822Z,43.13
2018-11-29T10:22:50.543Z,43.17
2018-11-29T10:25:18.336Z,43.97
2018-11-29T10:27:46.953Z,46.67
2018-11-29T10:30:15.595Z,43.20
2018-11-29T10:32:43.340Z,41.43
2018-11-29T10:35:10.999Z,44.63
2018-11-29T10:37:38.687Z,45.97
2018-11-29T10:40:07.388Z,42.37
2018-11-29T10:42:35.103Z,41.87
2018-11-29T10:45:02.816Z,42.77
2018-11-29T10:47:30.517Z,42.63
2018-11-29T10:49:58.219Z,39.17
2018-11-29T10:52:25.973Z,42.10
2018-11-29T10:54:54.664Z,39.03
2018-11-29T10:57:22.433Z,42.40
2018-11-29T10:59:50.230Z,39.67
2018-11-29T11:02:23.544Z,46.53
2018-11-29T11:04:51.252Z,42.10
2018-11-29T11:07:19.016Z,42.93
2018-11-29T11:09:46.772Z,44.13
2018-11-29T11:12:18.737Z,46.23
2018-11-29T11:14:44.144Z,46.53
2018-11-29T11:17:11.908Z,42.77
2018-11-29T11:19:39.667Z,42.63
2018-11-29T11:22:07.318Z,47.83
2018-11-29T11:24:35.024Z,42.77
2018-11-29T11:27:02.751Z,41.93
2018-11-29T11:29:30.403Z,45.07
2018-11-29T11:31:58.079Z,43.63
2018-11-29T11:34:25.822Z,40.87
2018-11-29T11:36:53.502Z,45.03
2018-11-29T11:39:21.284Z,40.23
2018-11-29T11:41:49.010Z,42.73
2018-11-29T11:44:16.718Z,42.70
2018-11-29T11:46:44.471Z,42.60
2018-11-29T11:49:12.199Z,40.60
2018-11-29T11:51:39.867Z,44.90
2018-11-29T11:54:07.568Z,41.23
2018-11-29T11:56:35.290Z,37.83
2018-11-29T11:59:03.020Z,43.40
2018-11-29T12:01:30.757Z,41.13
2018-11-29T12:03:59.933Z,38.87
2018-11-29T12:06:26.172Z,38.47
2018-11-29T12:08:53.948Z,41.00
2018-11-29T12:11:21.671Z,43.50
2018-11-29T12:13:49.377Z,40.27
2018-11-29T12:16:18.052Z,37.93
2018-11-29T12:18:46.749Z,39.60
2018-11-29T12:21:14.501Z,39.83
2018-11-29T12:23:42.243Z,38.57
2018-11-29T12:26:10.116Z,36.40
2018-11-29T12:28:37.663Z,46.33
2018-11-29T12:31:05.640Z,36.60
2018-11-29T12:33:33.380Z,37.20
2018-11-29T12:36:01.095Z,42.33
2018-11-29T12:38:28.840Z,41.20
2018-11-29T12:40:56.524Z,36.83
2018-11-29T12:43:24.258Z,35.60
2018-11-29T12:45:51.931Z,38.20
2018-11-29T12:48:19.704Z,34.10
2018-11-29T12:50:47.447Z,40.60
2018-11-29T12:53:15.173Z,33.67
2018-11-29T12:55:43.466Z,36.60
2018-11-29T12:58:11.215Z,39.80
2018-11-29T13:00:38.948Z,38.23
2018-11-29T13:05:35.699Z,34.33
2018-11-29T13:08:03.432Z,36.00
2018-11-29T13:10:31.208Z,36.40
2018-11-29T13:12:58.923Z,36.50
2018-11-29T13:15:28.157Z,39.13
2018-11-29T13:17:57.428Z,33.80
2018-11-29T13:20:25.128Z,29.87
2018-11-29T13:22:52.840Z,31.87
2018-11-29T13:25:21.044Z,34.43
2018-11-29T13:27:49.813Z,36.60
2018-11-29T13:30:18.104Z,33.97
2018-11-29T13:32:45.944Z,38.47
2018-11-29T13:35:16.959Z,37.43
2018-11-29T13:37:45.480Z,32.90
2018-11-29T13:40:13.187Z,30.93
2018-11-29T13:42:40.959Z,31.40
2018-11-29T13:45:09.287Z,34.03
2018-11-29T13:47:37.277Z,30.70
2018-11-29T13:50:07.532Z,36.43
2018-11-29T13:52:35.259Z,34.13
2018-11-29T13:55:03.031Z,31.97
2018-11-29T13:57:30.776Z,37.90
2018-11-29T13:59:58.500Z,32.50
2018-11-29T14:02:26.252Z,31.77
2018-11-29T14:04:53.993Z,30.87
2018-11-29T14:07:21.692Z,34.00
2018-11-29T14:09:51.399Z,33.07
2018-11-29T14:12:19.119Z,33.17
2018-11-29T14:14:46.801Z,36.93
2018-11-29T14:17:14.534Z,32.37
2018-11-29T14:19:44.147Z,32.97
2018-11-29T14:22:11.819Z,31.93
2018-11-29T14:24:39.538Z,28.63
2018-11-29T14:27:07.243Z,34.37
2018-11-29T14:29:34.920Z,33.97
2018-11-29T14:32:02.616Z,32.30
2018-11-29T14:34:30.393Z,29.73
2018-11-29T14:36:58.052Z,36.80
2018-11-29T14:39:26.279Z,29.77
2018-11-29T14:41:53.984Z,32.50
2018-11-29T14:44:21.818Z,38.20
2018-11-29T14:46:49.463Z,29.17
2018-11-29T14:49:17.147Z,30.57
2018-11-29T14:51:48.022Z,31.87
2018-11-29T14:54:12.648Z,35.07
2018-11-29T14:56:40.360Z,30.43
2018-11-29T14:59:08.098Z,26.60
2018-11-29T15:01:35.751Z,32.10
2018-11-29T15:04:03.486Z,35.50
2018-11-29T15:06:31.186Z,31.27
2018-11-29T15:08:58.917Z,28.67
2018-11-29T15:11:29.292Z,26.83
2018-11-29T15:13:54.295Z,34.10
2018-11-29T15:16:22.035Z,32.30
2018-11-29T15:18:49.740Z,34.13
2018-11-29T15:21:17.481Z,32.37
2018-11-29T15:23:45.223Z,34.70
2018-11-29T15:26:12.956Z,37.70
2018-11-29T15:28:40.669Z,34.70
2018-11-29T15:31:08.403Z,33.30
2018-11-29T15:33:36.100Z,30.10
2018-11-29T15:36:03.892Z,36.87
2018-11-29T15:38:31.661Z,34.37
2018-11-29T15:40:59.384Z,38.03
2018-11-29T15:43:27.156Z,33.80
2018-11-29T15:45:54.916Z,33.80
2018-11-29T15:48:22.692Z,37.10
2018-11-29T15:50:50.452Z,29.10
2018-11-29T15:53:18.183Z,38.70
2018-11-29T15:55:45.867Z,41.50
2018-11-29T15:58:13.652Z,31.33
2018-11-29T16:00:41.367Z,36.73
2018-11-29T16:03:09.194Z,35.50
2018-11-29T16:05:36.964Z,35.17
2018-11-29T16:08:05.182Z,35.30
2018-11-29T16:10:32.868Z,36.00
2018-11-29T16:13:00.598Z,34.73
2018-11-29T16:15:28.308Z,33.37
2018-11-29T16:17:56.031Z,33.20
2018-11-29T16:20:28.030Z,38.00
2018-11-29T16:22:55.716Z,30.27
2018-11-29T16:25:23.495Z,33.53
2018-11-29T16:27:52.228Z,34.30
2018-11-29T16:30:21.658Z,32.27
2018-11-29T16:32:49.425Z,39.40
2018-11-29T16:35:17.157Z,31.20
2018-11-29T16:37:44.824Z,31.47
2018-11-29T16:40:12.565Z,35.47
2018-11-29T16:42:40.296Z,37.00
2018-11-29T16:45:09.154Z,35.70
2018-11-29T16:47:36.871Z,37.30
2018-11-29T16:50:04.902Z,35.70
2018-11-29T16:52:32.618Z,32.83
2018-11-29T16:55:00.274Z,30.10
2018-11-29T16:57:27.944Z,31.50
2018-11-29T16:59:55.623Z,33.17
2018-11-29T17:02:23.320Z,36.83
2018-11-29T17:04:51.056Z,30.70
2018-11-29T17:07:18.833Z,34.97
2018-11-29T17:09:46.608Z,38.90
2018-11-29T17:12:14.891Z,36.53
2018-11-29T17:14:42.615Z,32.73
2018-11-29T17:17:10.343Z,30.33
2018-11-29T17:19:38.021Z,31.50
2018-11-29T17:22:05.789Z,33.20
2018-11-29T17:24:33.472Z,28.70
2018-11-29T17:27:01.172Z,33.50
2018-11-29T17:29:28.913Z,39.03
2018-11-29T17:31:56.634Z,34.40
2018-11-29T17:34:24.314Z,38.67
2018-11-29T17:36:52.004Z,40.40
2018-11-29T17:39:19.752Z,34.80
2018-11-29T17:41:47.520Z,37.67
2018-11-29T17:44:15.287Z,32.77
2018-11-29T17:46:43.048Z,31.07
2018-11-29T17:49:10.787Z,40.67
2018-11-29T17:51:39.480Z,34.17
2018-11-29T17:54:07.215Z,32.30
2018-11-29T17:56:34.891Z,35.77
2018-11-29T17:59:02.904Z,33.57
2018-11-29T18:01:30.268Z,29.90
2018-11-29T18:03:58.013Z,27.87
2018-11-29T18:06:25.676Z,30.23
2018-11-29T18:08:53.428Z,31.60
2018-11-29T18:11:21.754Z,31.57
2018-11-29T18:13:48.890Z,35.20
2018-11-29T18:16:16.622Z,28.13
2018-11-29T18:18:44.363Z,26.50
2018-11-29T18:21:12.085Z,26.80
2018-11-29T18:23:39.778Z,28.87
2018-11-29T18:26:07.483Z,29.97
2018-11-29T18:28:35.245Z,26.93
2018-11-29T18:31:02.879Z,29.30
2018-11-29T18:33:30.588Z,25.50
2018-11-29T18:35:58.311Z,27.60
2018-11-29T18:38:26.021Z,30.90
2018-11-29T18:40:53.800Z,33.13
2018-11-29T18:43:21.504Z,25.57
2018-11-29T18:45:49.171Z,22.80
2018-11-29T18:48:16.835Z,29.40
2018-11-29T18:50:44.497Z,25.20
2018-11-29T18:53:12.262Z,25.00
2018-11-29T18:55:39.952Z,26.30
2018-11-29T18:58:07.677Z,27.23
2018-11-29T19:00:35.692Z,23.37
2018-11-29T19:03:03.411Z,29.67
2018-11-29T19:05:31.121Z,26.23
2018-11-29T19:07:59.759Z,23.83
2018-11-29T19:10:27.563Z,26.83
2018-11-29T19:12:56.869Z,29.47
2018-11-29T19:15:24.610Z,28.67
2018-11-29T19:17:52.301Z,22.33
2018-11-29T19:20:20.034Z,23.60
2018-11-29T19:22:47.828Z,25.57
2018-11-29T19:25:16.108Z,23.43
2018-11-29T19:27:43.843Z,20.03
2018-11-29T19:30:13.224Z,25.07
2018-11-29T19:32:40.928Z,27.83
2018-11-29T19:35:09.291Z,30.30
2018-11-29T19:37:37.027Z,30.20
2018-11-29T19:40:06.787Z,28.20
2018-11-29T19:42:34.507Z,37.00
2018-11-29T19:45:04.682Z,25.20
2018-11-29T19:47:32.387Z,27.90
2018-11-29T19:50:00.086Z,26.67
2018-11-29T19:52:27.832Z,24.70
2018-11-29T19:54:55.536Z,23.00
2018-11-29T19:57:23.354Z,19.00
2018-11-29T19:59:51.956Z,24.00
2018-11-29T20:02:19.744Z,23.93
2018-11-29T20:04:47.416Z,28.00
2018-11-29T20:07:15.144Z,26.30
2018-11-29T20:09:42.916Z,22.47
2018-11-29T20:12:10.689Z,24.10
2018-11-29T20:14:39.351Z,24.73
2018-11-29T20:17:07.002Z,21.60
2018-11-29T20:19:34.653Z,25.37
2018-11-29T20:22:02.318Z,19.47
2018-11-29T20:24:30.013Z,25.40
2018-11-29T20:26:57.726Z,25.90
2018-11-29T20:29:26.464Z,25.37
2018-11-29T20:31:54.236Z,26.80
2018-11-29T20:34:21.938Z,22.30
2018-11-29T20:36:49.656Z,22.57
2018-11-29T20:39:17.386Z,27.87
2018-11-29T20:41:45.112Z,24.67
2018-11-29T20:44:13.001Z,22.53
2018-11-29T20:46:40.579Z,24.57
2018-11-29T20:49:08.337Z,26.73
2018-11-29T20:51:36.040Z,25.20
2018-11-29T20:54:03.793Z,21.83
2018-11-29T20:56:31.526Z,24.60
2018-11-29T20:58:59.187Z,22.93
2018-11-29T21:01:27.896Z,30.40
2018-11-29T21:03:55.613Z,30.63
2018-11-29T21:06:23.335Z,21.63
2018-11-29T21:08:51.079Z,24.13
2018-11-29T21:11:18.767Z,29.00
2018-11-29T21:13:46.539Z,23.93
2018-11-29T21:16:14.255Z,24.23
2018-11-29T21:18:41.963Z,27.60
2018-11-29T21:21:09.724Z,26.20
2018-11-29T21:23:37.486Z,23.97
2018-11-29T21:26:05.329Z,23.93
2018-11-29T21:28:33.086Z,25.00
2018-11-29T21:31:00.767Z,29.40
2018-11-29T21:33:28.486Z,24.07
2018-11-29T21:35:56.192Z,25.10
2018-11-29T21:38:23.977Z,24.00
2018-11-29T21:40:53.707Z,23.90
2018-11-29T21:43:21.410Z,30.30
2018-11-29T21:45:49.071Z,25.67
2018-11-29T21:48:17.773Z,24.47
2018-11-29T21:50:45.535Z,26.23
2018-11-29T21:53:13.194Z,29.43
2018-11-29T21:55:40.939Z,28.20
2018-11-29T21:58:08.654Z,29.50
2018-11-29T22:00:36.375Z,26.10
2018-11-29T22:03:04.145Z,30.37
2018-11-29T22:05:31.858Z,23.10
2018-11-29T22:07:59.607Z,28.37
2018-11-29T22:10:27.348Z,26.97
2018-11-29T22:12:55.115Z,27.93
2018-11-29T22:15:22.859Z,24.80
2018-11-29T22:18:27.480Z,27.17
2018-11-29T22:20:56.615Z,24.60
2018-11-29T22:23:24.347Z,26.37
2018-11-29T22:25:52.296Z,28.17
2018-11-29T22:28:20.032Z,25.10
2018-11-29T22:30:47.832Z,26.60
2018-11-29T22:33:15.535Z,23.93
2018-11-29T22:35:43.270Z,24.83
2018-11-29T22:38:10.978Z,26.80
2018-11-29T22:40:38.720Z,28.97
2018-11-29T22:43:06.484Z,24.00
2018-11-29T22:45:35.902Z,31.07
2018-11-29T22:48:03.708Z,31.13
2018-11-29T22:50:31.432Z,27.07
2018-11-29T22:52:59.197Z,29.40
2018-11-29T22:55:26.959Z,22.27
2018-11-29T22:57:54.684Z,31.83
2018-11-29T23:00:22.383Z,32.07
2018-11-29T23:02:50.147Z,23.80
2018-11-29T23:05:17.955Z,28.03
2018-11-29T23:07:45.664Z,23.73
2018-11-29T23:10:13.441Z,25.57
2018-11-29T23:12:41.212Z,25.03
2018-11-29T23:15:10.411Z,28.10
2018-11-29T23:17:38.155Z,27.77
2018-11-29T23:20:07.217Z,23.30
2018-11-29T23:22:34.943Z,25.03
2018-11-29T23:25:02.709Z,27.23
2018-11-29T23:27:30.475Z,24.33
2018-11-29T23:29:58.244Z,23.70
2018-11-29T23:32:25.947Z,26.33
2018-11-29T23:34:53.645Z,22.73
2018-11-29T23:37:21.437Z,26.70
2018-11-29T23:39:49.187Z,24.13
2018-11-29T23:42:16.919Z,29.10
2018-11-29T23:44:44.660Z,22.90
2018-11-29T23:47:12.347Z,25.60
2018-11-29T23:49:41.070Z,24.23
2018-11-29T23:52:08.821Z,28.67
2018-11-29T23:54:36.590Z,23.23
2018-11-29T23:57:04.663Z,27.87
2018-11-29T23:59:32.416Z,33.67
